sensor_id;sensor_type;location;lat;lon;timestamp;temperature;humidity
68139;DHT22;54940;50.842;4.410;2023-04-16T00:00:24;9.60;99.90
68139;DHT22;54940;50.842;4.410;2023-04-16T00:02:49;9.50;99.90
68139;DHT22;54940;50.842;4.410;2023-04-16T00:05:15;9.50;99.90
68139;DHT22;54940;50.842;4.410;2023-04-16T00:07:40;9.40;99.90
68139;DHT22;54940;50.842;4.410;2023-04-16T00:10:06;9.40;99.90
68139;DHT22;54940;50.842;4.410;2023-04-16T00:12:32;9.50;99.90
68139;DHT22;54940;50.842;4.410;2023-04-16T00:14:58;9.40;99.90
68139;DHT22;54940;50.842;4.410;2023-04-16T00:17:24;9.50;99.90
68139;DHT22;54940;50.842;4.410;2023-04-16T00:19:50;9.50;99.90
68139;DHT22;54940;50.842;4.410;2023-04-16T00:22:15;9.50;99.90
68139;DHT22;54940;50.842;4.410;2023-04-16T00:24:41;9.50;99.90
68139;DHT22;54940;50.842;4.410;2023-04-16T00:27:06;9.50;99.90
68139;DHT22;54940;50.842;4.410;2023-04-16T00:29:32;9.50;99.90
68139;DHT22;54940;50.842;4.410;2023-04-16T00:31:59;9.50;99.90
68139;DHT22;54940;50.842;4.410;2023-04-16T00:34:25;9.60;99.90
68139;DHT22;54940;50.842;4.410;2023-04-16T00:36:50;9.60;99.90
68139;DHT22;54940;50.842;4.410;2023-04-16T00:39:16;9.60;99.90
68139;DHT22;54940;50.842;4.410;2023-04-16T00:41:42;9.60;99.90
68139;DHT22;54940;50.842;4.410;2023-04-16T00:44:08;9.50;99.90
68139;DHT22;54940;50.842;4.410;2023-04-16T00:46:34;9.50;99.90
68139;DHT22;54940;50.842;4.410;2023-04-16T00:49:02;9.50;99.90
68139;DHT22;54940;50.842;4.410;2023-04-16T00:51:28;9.50;99.90
68139;DHT22;54940;50.842;4.410;2023-04-16T00:53:56;9.40;99.90
68139;DHT22;54940;50.842;4.410;2023-04-16T00:56:23;9.30;99.90
68139;DHT22;54940;50.842;4.410;2023-04-16T00:58:49;9.20;99.90
68139;DHT22;54940;50.842;4.410;2023-04-16T01:01:15;9.20;99.90
68139;DHT22;54940;50.842;4.410;2023-04-16T01:03:46;9.30;99.90
68139;DHT22;54940;50.842;4.410;2023-04-16T01:06:12;9.30;99.90
68139;DHT22;54940;50.842;4.410;2023-04-16T01:08:38;9.40;99.90
68139;DHT22;54940;50.842;4.410;2023-04-16T01:11:04;9.30;99.90
68139;DHT22;54940;50.842;4.410;2023-04-16T01:13:31;9.20;99.90
68139;DHT22;54940;50.842;4.410;2023-04-16T01:15:56;9.20;99.90
68139;DHT22;54940;50.842;4.410;2023-04-16T01:18:22;9.20;99.90
68139;DHT22;54940;50.842;4.410;2023-04-16T01:20:49;9.20;99.90
68139;DHT22;54940;50.842;4.410;2023-04-16T01:23:15;9.30;99.90
68139;DHT22;54940;50.842;4.410;2023-04-16T01:25:43;9.30;99.90
68139;DHT22;54940;50.842;4.410;2023-04-16T01:28:09;9.40;99.90
68139;DHT22;54940;50.842;4.410;2023-04-16T01:30:35;9.50;99.90
68139;DHT22;54940;50.842;4.410;2023-04-16T01:33:00;9.50;99.90
68139;DHT22;54940;50.842;4.410;2023-04-16T01:35:26;9.40;99.90
68139;DHT22;54940;50.842;4.410;2023-04-16T01:37:52;9.50;99.90
68139;DHT22;54940;50.842;4.410;2023-04-16T01:40:18;9.50;99.90
68139;DHT22;54940;50.842;4.410;2023-04-16T01:42:43;9.60;99.90
68139;DHT22;54940;50.842;4.410;2023-04-16T01:45:09;9.40;99.90
68139;DHT22;54940;50.842;4.410;2023-04-16T01:47:35;9.20;99.90
68139;DHT22;54940;50.842;4.410;2023-04-16T01:50:02;9.30;99.90
68139;DHT22;54940;50.842;4.410;2023-04-16T01:52:28;9.20;99.90
68139;DHT22;54940;50.842;4.410;2023-04-16T01:54:53;9.20;99.90
68139;DHT22;54940;50.842;4.410;2023-04-16T01:57:19;9.20;99.90
68139;DHT22;54940;50.842;4.410;2023-04-16T01:59:45;9.10;99.90
68139;DHT22;54940;50.842;4.410;2023-04-16T02:02:12;9.20;99.90
68139;DHT22;54940;50.842;4.410;2023-04-16T02:04:40;9.10;99.90
68139;DHT22;54940;50.842;4.410;2023-04-16T02:07:06;9.20;99.90
68139;DHT22;54940;50.842;4.410;2023-04-16T02:09:36;9.20;99.90
68139;DHT22;54940;50.842;4.410;2023-04-16T02:12:02;9.20;99.90
68139;DHT22;54940;50.842;4.410;2023-04-16T02:14:29;9.30;99.90
68139;DHT22;54940;50.842;4.410;2023-04-16T02:16:55;9.30;99.90
68139;DHT22;54940;50.842;4.410;2023-04-16T02:19:21;9.20;99.90
68139;DHT22;54940;50.842;4.410;2023-04-16T02:21:47;9.20;99.90
68139;DHT22;54940;50.842;4.410;2023-04-16T02:24:13;9.30;99.90
68139;DHT22;54940;50.842;4.410;2023-04-16T02:26:39;9.30;99.90
68139;DHT22;54940;50.842;4.410;2023-04-16T02:29:05;9.20;99.90
68139;DHT22;54940;50.842;4.410;2023-04-16T02:31:30;9.10;99.90
68139;DHT22;54940;50.842;4.410;2023-04-16T02:33:56;9.20;99.90
68139;DHT22;54940;50.842;4.410;2023-04-16T02:36:22;9.20;99.90
68139;DHT22;54940;50.842;4.410;2023-04-16T02:38:47;9.30;99.90
68139;DHT22;54940;50.842;4.410;2023-04-16T02:41:13;9.30;99.90
68139;DHT22;54940;50.842;4.410;2023-04-16T02:43:39;9.30;99.90
68139;DHT22;54940;50.842;4.410;2023-04-16T02:46:05;9.20;99.90
68139;DHT22;54940;50.842;4.410;2023-04-16T02:48:31;9.20;99.90
68139;DHT22;54940;50.842;4.410;2023-04-16T02:50:57;9.20;99.90
68139;DHT22;54940;50.842;4.410;2023-04-16T02:53:23;9.40;99.90
68139;DHT22;54940;50.842;4.410;2023-04-16T02:55:52;9.40;99.90
68139;DHT22;54940;50.842;4.410;2023-04-16T02:58:24;9.30;99.90
68139;DHT22;54940;50.842;4.410;2023-04-16T03:00:53;9.30;99.90
68139;DHT22;54940;50.842;4.410;2023-04-16T03:03:20;9.20;99.90
68139;DHT22;54940;50.842;4.410;2023-04-16T03:05:46;9.30;99.90
68139;DHT22;54940;50.842;4.410;2023-04-16T03:08:12;9.30;99.90
68139;DHT22;54940;50.842;4.410;2023-04-16T03:10:38;9.40;99.90
68139;DHT22;54940;50.842;4.410;2023-04-16T03:13:04;9.40;99.90
68139;DHT22;54940;50.842;4.410;2023-04-16T03:15:30;9.20;99.90
68139;DHT22;54940;50.842;4.410;2023-04-16T03:17:56;9.20;99.90
68139;DHT22;54940;50.842;4.410;2023-04-16T03:20:22;9.20;99.90
68139;DHT22;54940;50.842;4.410;2023-04-16T03:22:48;9.20;99.90
68139;DHT22;54940;50.842;4.410;2023-04-16T03:25:14;9.10;99.90
68139;DHT22;54940;50.842;4.410;2023-04-16T03:27:40;9.20;99.90
68139;DHT22;54940;50.842;4.410;2023-04-16T03:30:10;9.20;99.90
68139;DHT22;54940;50.842;4.410;2023-04-16T03:32:36;9.20;99.90
68139;DHT22;54940;50.842;4.410;2023-04-16T03:35:03;9.20;99.90
68139;DHT22;54940;50.842;4.410;2023-04-16T03:37:29;9.20;99.90
68139;DHT22;54940;50.842;4.410;2023-04-16T03:39:55;9.20;99.90
68139;DHT22;54940;50.842;4.410;2023-04-16T03:42:20;9.20;99.90
68139;DHT22;54940;50.842;4.410;2023-04-16T03:44:46;9.10;99.90
68139;DHT22;54940;50.842;4.410;2023-04-16T03:47:12;9.20;99.90
68139;DHT22;54940;50.842;4.410;2023-04-16T03:49:37;9.10;99.90
68139;DHT22;54940;50.842;4.410;2023-04-16T03:52:03;9.10;99.90
68139;DHT22;54940;50.842;4.410;2023-04-16T03:54:29;9.10;99.90
68139;DHT22;54940;50.842;4.410;2023-04-16T03:56:54;9.10;99.90
68139;DHT22;54940;50.842;4.410;2023-04-16T03:59:21;9.10;99.90
68139;DHT22;54940;50.842;4.410;2023-04-16T04:01:47;9.00;99.90
68139;DHT22;54940;50.842;4.410;2023-04-16T04:04:12;9.10;99.90
68139;DHT22;54940;50.842;4.410;2023-04-16T04:06:38;9.10;99.90
68139;DHT22;54940;50.842;4.410;2023-04-16T04:09:04;9.10;99.90
68139;DHT22;54940;50.842;4.410;2023-04-16T04:11:30;9.10;99.90
68139;DHT22;54940;50.842;4.410;2023-04-16T04:13:55;9.00;99.90
68139;DHT22;54940;50.842;4.410;2023-04-16T04:16:21;9.10;99.90
68139;DHT22;54940;50.842;4.410;2023-04-16T04:18:50;9.10;99.90
68139;DHT22;54940;50.842;4.410;2023-04-16T04:21:15;9.00;99.90
68139;DHT22;54940;50.842;4.410;2023-04-16T04:23:41;9.00;99.90
68139;DHT22;54940;50.842;4.410;2023-04-16T04:26:08;9.00;99.90
68139;DHT22;54940;50.842;4.410;2023-04-16T04:28:34;9.10;99.90
68139;DHT22;54940;50.842;4.410;2023-04-16T04:31:00;9.20;99.90
68139;DHT22;54940;50.842;4.410;2023-04-16T04:33:26;9.10;99.90
68139;DHT22;54940;50.842;4.410;2023-04-16T04:35:52;9.10;99.90
68139;DHT22;54940;50.842;4.410;2023-04-16T04:38:18;9.00;99.90
68139;DHT22;54940;50.842;4.410;2023-04-16T04:40:47;8.90;99.90
68139;DHT22;54940;50.842;4.410;2023-04-16T04:43:12;9.10;99.90
68139;DHT22;54940;50.842;4.410;2023-04-16T04:45:38;9.20;99.90
68139;DHT22;54940;50.842;4.410;2023-04-16T04:48:04;9.20;99.90
68139;DHT22;54940;50.842;4.410;2023-04-16T04:50:30;9.10;99.90
68139;DHT22;54940;50.842;4.410;2023-04-16T04:52:56;9.10;99.90
68139;DHT22;54940;50.842;4.410;2023-04-16T04:55:22;8.90;99.90
68139;DHT22;54940;50.842;4.410;2023-04-16T04:57:48;9.00;99.90
68139;DHT22;54940;50.842;4.410;2023-04-16T05:00:14;9.10;99.90
68139;DHT22;54940;50.842;4.410;2023-04-16T05:02:40;9.20;99.90
68139;DHT22;54940;50.842;4.410;2023-04-16T05:05:06;9.20;99.90
68139;DHT22;54940;50.842;4.410;2023-04-16T05:07:34;9.20;99.90
68139;DHT22;54940;50.842;4.410;2023-04-16T05:10:00;9.30;99.90
68139;DHT22;54940;50.842;4.410;2023-04-16T05:12:25;9.30;99.90
68139;DHT22;54940;50.842;4.410;2023-04-16T05:14:51;9.20;99.90
68139;DHT22;54940;50.842;4.410;2023-04-16T05:17:17;9.20;99.90
68139;DHT22;54940;50.842;4.410;2023-04-16T05:19:42;9.20;99.90
68139;DHT22;54940;50.842;4.410;2023-04-16T05:22:08;9.10;99.90
68139;DHT22;54940;50.842;4.410;2023-04-16T05:24:34;9.20;99.90
68139;DHT22;54940;50.842;4.410;2023-04-16T05:26:59;9.20;99.90
68139;DHT22;54940;50.842;4.410;2023-04-16T05:29:25;9.20;99.90
68139;DHT22;54940;50.842;4.410;2023-04-16T05:31:51;9.20;99.90
68139;DHT22;54940;50.842;4.410;2023-04-16T05:34:17;9.10;99.90
68139;DHT22;54940;50.842;4.410;2023-04-16T05:36:43;9.20;99.90
68139;DHT22;54940;50.842;4.410;2023-04-16T05:39:08;9.20;99.90
68139;DHT22;54940;50.842;4.410;2023-04-16T05:41:34;9.30;99.90
68139;DHT22;54940;50.842;4.410;2023-04-16T05:44:00;9.30;99.90
68139;DHT22;54940;50.842;4.410;2023-04-16T05:46:26;9.30;99.90
68139;DHT22;54940;50.842;4.410;2023-04-16T05:48:51;9.30;99.90
68139;DHT22;54940;50.842;4.410;2023-04-16T05:51:17;9.20;99.90
68139;DHT22;54940;50.842;4.410;2023-04-16T05:53:43;9.20;99.90
68139;DHT22;54940;50.842;4.410;2023-04-16T05:56:08;9.10;99.90
68139;DHT22;54940;50.842;4.410;2023-04-16T05:58:34;9.20;99.90
68139;DHT22;54940;50.842;4.410;2023-04-16T06:01:00;9.20;99.90
68139;DHT22;54940;50.842;4.410;2023-04-16T06:03:26;9.20;99.90
68139;DHT22;54940;50.842;4.410;2023-04-16T06:05:52;9.00;99.90
68139;DHT22;54940;50.842;4.410;2023-04-16T06:08:18;9.10;99.90
68139;DHT22;54940;50.842;4.410;2023-04-16T06:10:45;9.00;99.90
68139;DHT22;54940;50.842;4.410;2023-04-16T06:13:11;9.00;99.90
68139;DHT22;54940;50.842;4.410;2023-04-16T06:15:36;9.10;99.90
68139;DHT22;54940;50.842;4.410;2023-04-16T06:18:02;9.00;99.90
68139;DHT22;54940;50.842;4.410;2023-04-16T06:20:28;9.00;99.90
68139;DHT22;54940;50.842;4.410;2023-04-16T06:22:54;8.90;99.90
68139;DHT22;54940;50.842;4.410;2023-04-16T06:25:20;8.90;99.90
68139;DHT22;54940;50.842;4.410;2023-04-16T06:27:46;8.90;99.90
68139;DHT22;54940;50.842;4.410;2023-04-16T06:30:13;8.90;99.90
68139;DHT22;54940;50.842;4.410;2023-04-16T06:32:39;8.90;99.90
68139;DHT22;54940;50.842;4.410;2023-04-16T06:35:05;9.00;99.90
68139;DHT22;54940;50.842;4.410;2023-04-16T06:37:31;9.10;99.90
68139;DHT22;54940;50.842;4.410;2023-04-16T06:39:57;9.20;99.90
68139;DHT22;54940;50.842;4.410;2023-04-16T06:42:22;9.20;99.90
68139;DHT22;54940;50.842;4.410;2023-04-16T06:44:48;9.20;99.90
68139;DHT22;54940;50.842;4.410;2023-04-16T06:47:14;9.20;99.90
68139;DHT22;54940;50.842;4.410;2023-04-16T06:49:40;9.20;99.90
68139;DHT22;54940;50.842;4.410;2023-04-16T06:52:06;9.10;99.90
68139;DHT22;54940;50.842;4.410;2023-04-16T06:54:32;9.30;99.90
68139;DHT22;54940;50.842;4.410;2023-04-16T06:56:58;9.30;99.90
68139;DHT22;54940;50.842;4.410;2023-04-16T06:59:23;9.30;99.90
68139;DHT22;54940;50.842;4.410;2023-04-16T07:01:50;9.40;99.90
68139;DHT22;54940;50.842;4.410;2023-04-16T07:04:16;9.40;99.90
68139;DHT22;54940;50.842;4.410;2023-04-16T07:06:41;9.50;99.90
68139;DHT22;54940;50.842;4.410;2023-04-16T07:09:07;9.40;99.90
68139;DHT22;54940;50.842;4.410;2023-04-16T07:11:33;9.40;99.90
68139;DHT22;54940;50.842;4.410;2023-04-16T07:13:58;9.40;99.90
68139;DHT22;54940;50.842;4.410;2023-04-16T07:16:24;9.40;99.90
68139;DHT22;54940;50.842;4.410;2023-04-16T07:18:50;9.40;99.90
68139;DHT22;54940;50.842;4.410;2023-04-16T07:21:16;9.30;99.90
68139;DHT22;54940;50.842;4.410;2023-04-16T07:23:42;9.30;99.90
68139;DHT22;54940;50.842;4.410;2023-04-16T07:26:07;9.20;99.90
68139;DHT22;54940;50.842;4.410;2023-04-16T07:28:33;9.20;99.90
68139;DHT22;54940;50.842;4.410;2023-04-16T07:30:59;9.20;99.90
68139;DHT22;54940;50.842;4.410;2023-04-16T07:33:24;9.20;99.90
68139;DHT22;54940;50.842;4.410;2023-04-16T07:35:50;9.20;99.90
68139;DHT22;54940;50.842;4.410;2023-04-16T07:38:16;9.20;99.90
68139;DHT22;54940;50.842;4.410;2023-04-16T07:40:42;9.30;99.90
68139;DHT22;54940;50.842;4.410;2023-04-16T07:43:08;9.40;99.90
68139;DHT22;54940;50.842;4.410;2023-04-16T07:45:33;9.30;99.90
68139;DHT22;54940;50.842;4.410;2023-04-16T07:47:59;9.30;99.90
68139;DHT22;54940;50.842;4.410;2023-04-16T07:50:25;9.10;99.90
68139;DHT22;54940;50.842;4.410;2023-04-16T07:52:52;9.10;99.90
68139;DHT22;54940;50.842;4.410;2023-04-16T07:55:18;9.10;99.90
68139;DHT22;54940;50.842;4.410;2023-04-16T07:57:44;9.20;99.90
68139;DHT22;54940;50.842;4.410;2023-04-16T08:00:10;9.30;99.90
68139;DHT22;54940;50.842;4.410;2023-04-16T08:02:36;9.30;99.90
68139;DHT22;54940;50.842;4.410;2023-04-16T08:05:02;9.30;99.90
68139;DHT22;54940;50.842;4.410;2023-04-16T08:07:27;9.40;99.90
68139;DHT22;54940;50.842;4.410;2023-04-16T08:09:53;9.50;99.90
68139;DHT22;54940;50.842;4.410;2023-04-16T08:12:19;9.50;99.90
68139;DHT22;54940;50.842;4.410;2023-04-16T08:14:46;9.60;99.90
68139;DHT22;54940;50.842;4.410;2023-04-16T08:17:12;9.60;99.90
68139;DHT22;54940;50.842;4.410;2023-04-16T08:19:38;9.60;99.90
68139;DHT22;54940;50.842;4.410;2023-04-16T08:22:04;9.60;99.90
68139;DHT22;54940;50.842;4.410;2023-04-16T08:24:30;9.70;99.90
68139;DHT22;54940;50.842;4.410;2023-04-16T08:26:56;9.70;99.90
68139;DHT22;54940;50.842;4.410;2023-04-16T08:29:21;9.70;99.90
68139;DHT22;54940;50.842;4.410;2023-04-16T08:31:53;9.70;99.90
68139;DHT22;54940;50.842;4.410;2023-04-16T08:34:19;9.70;99.90
68139;DHT22;54940;50.842;4.410;2023-04-16T08:36:45;9.80;99.90
68139;DHT22;54940;50.842;4.410;2023-04-16T08:39:11;9.60;99.90
68139;DHT22;54940;50.842;4.410;2023-04-16T08:41:39;9.60;99.90
68139;DHT22;54940;50.842;4.410;2023-04-16T08:44:19;9.70;99.90
68139;DHT22;54940;50.842;4.410;2023-04-16T08:46:46;9.70;99.90
68139;DHT22;54940;50.842;4.410;2023-04-16T08:49:15;9.70;99.90
68139;DHT22;54940;50.842;4.410;2023-04-16T08:51:50;9.60;99.90
68139;DHT22;54940;50.842;4.410;2023-04-16T08:56:58;9.60;99.90
68139;DHT22;54940;50.842;4.410;2023-04-16T08:59:25;9.70;99.90
68139;DHT22;54940;50.842;4.410;2023-04-16T09:01:55;9.80;99.90
68139;DHT22;54940;50.842;4.410;2023-04-16T09:04:24;9.60;99.90
68139;DHT22;54940;50.842;4.410;2023-04-16T09:06:50;9.60;99.90
68139;DHT22;54940;50.842;4.410;2023-04-16T09:09:17;9.50;99.90
68139;DHT22;54940;50.842;4.410;2023-04-16T09:11:44;9.50;99.90
68139;DHT22;54940;50.842;4.410;2023-04-16T09:14:10;9.50;99.90
68139;DHT22;54940;50.842;4.410;2023-04-16T09:16:36;9.50;99.90
68139;DHT22;54940;50.842;4.410;2023-04-16T09:19:03;9.60;99.90
68139;DHT22;54940;50.842;4.410;2023-04-16T09:21:29;9.50;99.90
68139;DHT22;54940;50.842;4.410;2023-04-16T09:23:56;9.40;99.90
68139;DHT22;54940;50.842;4.410;2023-04-16T09:26:22;9.40;99.90
68139;DHT22;54940;50.842;4.410;2023-04-16T09:28:48;9.40;99.90
68139;DHT22;54940;50.842;4.410;2023-04-16T09:31:17;9.50;99.90
68139;DHT22;54940;50.842;4.410;2023-04-16T09:33:59;9.50;99.90
68139;DHT22;54940;50.842;4.410;2023-04-16T09:36:25;9.60;99.90
68139;DHT22;54940;50.842;4.410;2023-04-16T09:38:53;9.60;99.90
68139;DHT22;54940;50.842;4.410;2023-04-16T09:41:23;9.70;99.90
68139;DHT22;54940;50.842;4.410;2023-04-16T09:44:09;9.70;99.90
68139;DHT22;54940;50.842;4.410;2023-04-16T09:46:35;9.70;99.90
68139;DHT22;54940;50.842;4.410;2023-04-16T09:49:08;9.80;99.90
68139;DHT22;54940;50.842;4.410;2023-04-16T09:51:40;9.80;99.90
68139;DHT22;54940;50.842;4.410;2023-04-16T09:54:06;9.80;99.90
68139;DHT22;54940;50.842;4.410;2023-04-16T09:56:31;9.80;99.90
68139;DHT22;54940;50.842;4.410;2023-04-16T09:58:59;9.80;99.90
68139;DHT22;54940;50.842;4.410;2023-04-16T10:01:25;9.70;99.90
68139;DHT22;54940;50.842;4.410;2023-04-16T10:03:53;9.70;99.90
68139;DHT22;54940;50.842;4.410;2023-04-16T10:06:20;9.70;99.90
68139;DHT22;54940;50.842;4.410;2023-04-16T10:08:50;9.70;99.90
68139;DHT22;54940;50.842;4.410;2023-04-16T10:11:17;9.70;99.90
68139;DHT22;54940;50.842;4.410;2023-04-16T10:13:43;9.70;99.90
68139;DHT22;54940;50.842;4.410;2023-04-16T10:16:09;9.80;99.90
68139;DHT22;54940;50.842;4.410;2023-04-16T10:18:37;9.80;99.90
68139;DHT22;54940;50.842;4.410;2023-04-16T10:21:03;9.80;99.90
68139;DHT22;54940;50.842;4.410;2023-04-16T10:23:31;9.80;99.90
68139;DHT22;54940;50.842;4.410;2023-04-16T10:25:58;9.80;99.90
68139;DHT22;54940;50.842;4.410;2023-04-16T10:28:24;9.90;99.90
68139;DHT22;54940;50.842;4.410;2023-04-16T10:30:51;9.90;99.90
68139;DHT22;54940;50.842;4.410;2023-04-16T10:33:19;9.90;99.90
68139;DHT22;54940;50.842;4.410;2023-04-16T10:35:46;9.80;99.90
68139;DHT22;54940;50.842;4.410;2023-04-16T10:38:23;9.90;99.90
68139;DHT22;54940;50.842;4.410;2023-04-16T10:40:49;9.80;99.90
68139;DHT22;54940;50.842;4.410;2023-04-16T10:43:18;10.00;99.90
68139;DHT22;54940;50.842;4.410;2023-04-16T10:45:46;9.90;99.90
68139;DHT22;54940;50.842;4.410;2023-04-16T10:48:11;9.80;99.90
68139;DHT22;54940;50.842;4.410;2023-04-16T10:50:39;9.90;99.90
68139;DHT22;54940;50.842;4.410;2023-04-16T10:53:26;9.90;99.90
68139;DHT22;54940;50.842;4.410;2023-04-16T10:56:10;9.90;99.90
68139;DHT22;54940;50.842;4.410;2023-04-16T10:58:40;9.80;99.90
68139;DHT22;54940;50.842;4.410;2023-04-16T11:01:11;9.90;99.90
68139;DHT22;54940;50.842;4.410;2023-04-16T11:03:47;9.80;99.90
68139;DHT22;54940;50.842;4.410;2023-04-16T11:06:22;9.90;99.90
68139;DHT22;54940;50.842;4.410;2023-04-16T11:08:50;9.90;99.90
68139;DHT22;54940;50.842;4.410;2023-04-16T11:11:17;9.90;99.90
68139;DHT22;54940;50.842;4.410;2023-04-16T11:13:44;9.70;99.90
68139;DHT22;54940;50.842;4.410;2023-04-16T11:16:11;9.80;99.90
68139;DHT22;54940;50.842;4.410;2023-04-16T11:18:38;9.90;99.90
68139;DHT22;54940;50.842;4.410;2023-04-16T11:21:10;9.80;99.90
68139;DHT22;54940;50.842;4.410;2023-04-16T11:23:51;9.80;99.90
68139;DHT22;54940;50.842;4.410;2023-04-16T11:26:27;9.90;99.90
68139;DHT22;54940;50.842;4.410;2023-04-16T11:28:55;9.90;99.90
68139;DHT22;54940;50.842;4.410;2023-04-16T11:31:22;9.80;99.90
68139;DHT22;54940;50.842;4.410;2023-04-16T11:33:48;9.90;99.90
68139;DHT22;54940;50.842;4.410;2023-04-16T11:36:14;9.90;99.90
68139;DHT22;54940;50.842;4.410;2023-04-16T11:38:40;9.90;99.90
68139;DHT22;54940;50.842;4.410;2023-04-16T11:41:07;9.80;99.90
68139;DHT22;54940;50.842;4.410;2023-04-16T11:43:33;9.90;99.90
68139;DHT22;54940;50.842;4.410;2023-04-16T11:46:01;9.90;99.90
68139;DHT22;54940;50.842;4.410;2023-04-16T11:48:46;9.90;99.90
68139;DHT22;54940;50.842;4.410;2023-04-16T11:51:12;9.90;99.90
68139;DHT22;54940;50.842;4.410;2023-04-16T11:53:48;9.90;99.90
68139;DHT22;54940;50.842;4.410;2023-04-16T11:56:14;9.90;99.90
68139;DHT22;54940;50.842;4.410;2023-04-16T11:58:40;9.80;99.90
68139;DHT22;54940;50.842;4.410;2023-04-16T12:01:07;9.80;99.90
68139;DHT22;54940;50.842;4.410;2023-04-16T12:03:40;9.90;99.90
68139;DHT22;54940;50.842;4.410;2023-04-16T12:06:10;10.00;99.90
68139;DHT22;54940;50.842;4.410;2023-04-16T12:08:36;10.10;99.90
68139;DHT22;54940;50.842;4.410;2023-04-16T12:11:02;10.10;99.90
68139;DHT22;54940;50.842;4.410;2023-04-16T12:13:27;10.20;99.90
68139;DHT22;54940;50.842;4.410;2023-04-16T12:15:54;10.20;99.90
68139;DHT22;54940;50.842;4.410;2023-04-16T12:18:23;10.30;99.90
68139;DHT22;54940;50.842;4.410;2023-04-16T12:20:51;10.30;99.90
68139;DHT22;54940;50.842;4.410;2023-04-16T12:23:26;10.40;99.90
68139;DHT22;54940;50.842;4.410;2023-04-16T12:25:53;10.40;99.90
68139;DHT22;54940;50.842;4.410;2023-04-16T12:28:27;10.30;99.90
68139;DHT22;54940;50.842;4.410;2023-04-16T12:30:53;10.30;99.90
68139;DHT22;54940;50.842;4.410;2023-04-16T12:33:19;10.20;99.90
68139;DHT22;54940;50.842;4.410;2023-04-16T12:35:45;10.20;99.90
68139;DHT22;54940;50.842;4.410;2023-04-16T12:38:11;10.20;99.90
68139;DHT22;54940;50.842;4.410;2023-04-16T12:40:39;10.40;99.90
68139;DHT22;54940;50.842;4.410;2023-04-16T12:43:05;10.40;99.90
68139;DHT22;54940;50.842;4.410;2023-04-16T12:45:31;10.40;99.90
68139;DHT22;54940;50.842;4.410;2023-04-16T12:47:56;10.50;99.90
68139;DHT22;54940;50.842;4.410;2023-04-16T12:50:22;10.60;99.90
68139;DHT22;54940;50.842;4.410;2023-04-16T12:52:48;10.50;99.90
68139;DHT22;54940;50.842;4.410;2023-04-16T12:55:13;10.50;99.90
68139;DHT22;54940;50.842;4.410;2023-04-16T12:57:39;10.40;99.90
68139;DHT22;54940;50.842;4.410;2023-04-16T13:00:05;10.50;99.90
68139;DHT22;54940;50.842;4.410;2023-04-16T13:02:32;10.50;99.90
68139;DHT22;54940;50.842;4.410;2023-04-16T13:04:58;10.40;99.90
68139;DHT22;54940;50.842;4.410;2023-04-16T13:07:24;10.40;99.90
68139;DHT22;54940;50.842;4.410;2023-04-16T13:09:51;10.30;99.90
68139;DHT22;54940;50.842;4.410;2023-04-16T13:12:17;10.30;99.90
68139;DHT22;54940;50.842;4.410;2023-04-16T13:14:42;10.30;99.90
68139;DHT22;54940;50.842;4.410;2023-04-16T13:17:08;10.30;99.90
68139;DHT22;54940;50.842;4.410;2023-04-16T13:19:34;10.30;99.90
68139;DHT22;54940;50.842;4.410;2023-04-16T13:22:00;10.30;99.90
68139;DHT22;54940;50.842;4.410;2023-04-16T13:24:25;10.30;99.90
68139;DHT22;54940;50.842;4.410;2023-04-16T13:26:51;10.40;99.90
68139;DHT22;54940;50.842;4.410;2023-04-16T13:29:18;10.50;99.90
68139;DHT22;54940;50.842;4.410;2023-04-16T13:31:43;10.60;99.90
68139;DHT22;54940;50.842;4.410;2023-04-16T13:34:09;10.50;99.90
68139;DHT22;54940;50.842;4.410;2023-04-16T13:36:35;10.60;99.90
68139;DHT22;54940;50.842;4.410;2023-04-16T13:39:01;10.70;99.90
68139;DHT22;54940;50.842;4.410;2023-04-16T13:41:29;10.80;99.90
68139;DHT22;54940;50.842;4.410;2023-04-16T13:43:55;10.70;99.90
68139;DHT22;54940;50.842;4.410;2023-04-16T13:46:20;10.80;99.90
68139;DHT22;54940;50.842;4.410;2023-04-16T13:48:46;10.80;99.90
68139;DHT22;54940;50.842;4.410;2023-04-16T13:51:12;10.70;99.90
68139;DHT22;54940;50.842;4.410;2023-04-16T13:53:40;10.70;99.90
68139;DHT22;54940;50.842;4.410;2023-04-16T13:56:05;10.60;99.90
68139;DHT22;54940;50.842;4.410;2023-04-16T13:58:32;10.60;99.90
68139;DHT22;54940;50.842;4.410;2023-04-16T14:00:58;10.70;99.90
68139;DHT22;54940;50.842;4.410;2023-04-16T14:03:24;10.80;99.90
68139;DHT22;54940;50.842;4.410;2023-04-16T14:05:51;10.70;99.90
68139;DHT22;54940;50.842;4.410;2023-04-16T14:08:18;10.70;99.90
68139;DHT22;54940;50.842;4.410;2023-04-16T14:10:48;10.80;99.90
68139;DHT22;54940;50.842;4.410;2023-04-16T14:13:14;10.80;99.90
68139;DHT22;54940;50.842;4.410;2023-04-16T14:15:40;10.90;99.90
68139;DHT22;54940;50.842;4.410;2023-04-16T14:18:06;11.00;99.90
68139;DHT22;54940;50.842;4.410;2023-04-16T14:20:31;11.00;99.90
68139;DHT22;54940;50.842;4.410;2023-04-16T14:22:57;11.00;99.90
68139;DHT22;54940;50.842;4.410;2023-04-16T14:25:23;11.00;99.90
68139;DHT22;54940;50.842;4.410;2023-04-16T14:27:49;11.00;99.90
68139;DHT22;54940;50.842;4.410;2023-04-16T14:30:14;11.20;99.90
68139;DHT22;54940;50.842;4.410;2023-04-16T14:32:41;11.10;99.90
68139;DHT22;54940;50.842;4.410;2023-04-16T14:35:07;11.20;99.90
68139;DHT22;54940;50.842;4.410;2023-04-16T14:37:33;11.20;99.90
68139;DHT22;54940;50.842;4.410;2023-04-16T14:40:01;11.40;99.90
68139;DHT22;54940;50.842;4.410;2023-04-16T14:42:26;11.40;99.90
68139;DHT22;54940;50.842;4.410;2023-04-16T14:44:52;11.40;99.90
68139;DHT22;54940;50.842;4.410;2023-04-16T14:47:18;11.40;99.90
68139;DHT22;54940;50.842;4.410;2023-04-16T14:49:44;11.50;99.90
68139;DHT22;54940;50.842;4.410;2023-04-16T14:52:10;11.50;99.90
68139;DHT22;54940;50.842;4.410;2023-04-16T14:54:35;11.70;99.90
68139;DHT22;54940;50.842;4.410;2023-04-16T14:57:01;11.70;99.90
68139;DHT22;54940;50.842;4.410;2023-04-16T14:59:27;11.60;99.90
68139;DHT22;54940;50.842;4.410;2023-04-16T15:01:54;11.70;99.90
68139;DHT22;54940;50.842;4.410;2023-04-16T15:04:21;11.80;99.90
68139;DHT22;54940;50.842;4.410;2023-04-16T15:06:47;11.80;99.90
68139;DHT22;54940;50.842;4.410;2023-04-16T15:09:13;11.80;99.90
68139;DHT22;54940;50.842;4.410;2023-04-16T15:11:39;11.80;99.90
68139;DHT22;54940;50.842;4.410;2023-04-16T15:14:04;11.70;99.90
68139;DHT22;54940;50.842;4.410;2023-04-16T15:16:31;11.70;99.90
68139;DHT22;54940;50.842;4.410;2023-04-16T15:18:57;11.60;99.90
68139;DHT22;54940;50.842;4.410;2023-04-16T15:21:23;11.60;99.90
68139;DHT22;54940;50.842;4.410;2023-04-16T15:23:49;11.60;99.90
68139;DHT22;54940;50.842;4.410;2023-04-16T15:26:15;11.60;99.90
68139;DHT22;54940;50.842;4.410;2023-04-16T15:28:41;11.60;99.90
68139;DHT22;54940;50.842;4.410;2023-04-16T15:31:06;11.60;99.90
68139;DHT22;54940;50.842;4.410;2023-04-16T15:33:32;11.50;99.90
68139;DHT22;54940;50.842;4.410;2023-04-16T15:35:58;11.60;99.90
68139;DHT22;54940;50.842;4.410;2023-04-16T15:38:23;11.50;99.90
68139;DHT22;54940;50.842;4.410;2023-04-16T15:40:49;11.60;99.90